Saratoga, Wyoming
Current Conditions -  °F | °C
As of 8:15 PM on Saturday 20 Dec 2014 (Local Time) from KSAA Reporting Station
Scattered Clouds Scattered Clouds  
Wind Chill: 20°   Ceiling: Unl
Heat Index: 28°   Visibility: 10mi
Dew Point: 23°   Wind: 9mph
Humidity: 80%   Direction: 240°WSW
Pressure: 29.97"   Gusts: NA
Location:  41.45°N, 106.81°W
Report Text: KSAA 210315Z AUTO 24008KT 10SM SCT044 SCT050 M02/M05 A2997 RMK AO2
Loading
Personal Weather Stations






























Interactive Weather Map New forecast layout! Learn more

10-Day Weather Forecast

Advertisements
Track Severe Weather on mobile